sensor_id;sensor_type;location;lat;lon;timestamp;temperature;humidity
20422;DHT22;10370;53.102;18.034;2023-06-14T00:03:04;14.70;99.90
20422;DHT22;10370;53.102;18.034;2023-06-14T00:08:27;14.80;99.90
20422;DHT22;10370;53.102;18.034;2023-06-14T00:13:50;14.80;99.90
20422;DHT22;10370;53.102;18.034;2023-06-14T00:19:12;14.80;99.90
20422;DHT22;10370;53.102;18.034;2023-06-14T00:24:35;14.90;99.90
20422;DHT22;10370;53.102;18.034;2023-06-14T00:29:57;14.90;99.90
20422;DHT22;10370;53.102;18.034;2023-06-14T00:35:23;14.90;99.90
20422;DHT22;10370;53.102;18.034;2023-06-14T00:40:46;14.90;99.90
20422;DHT22;10370;53.102;18.034;2023-06-14T00:46:08;15.00;99.90
20422;DHT22;10370;53.102;18.034;2023-06-14T00:51:31;15.00;99.90
20422;DHT22;10370;53.102;18.034;2023-06-14T00:56:53;14.90;99.90
20422;DHT22;10370;53.102;18.034;2023-06-14T01:02:21;14.90;99.90
20422;DHT22;10370;53.102;18.034;2023-06-14T01:13:21;14.60;99.90
20422;DHT22;10370;53.102;18.034;2023-06-14T01:18:47;14.50;99.90
20422;DHT22;10370;53.102;18.034;2023-06-14T01:24:11;14.60;99.90
20422;DHT22;10370;53.102;18.034;2023-06-14T01:29:34;14.50;99.90
20422;DHT22;10370;53.102;18.034;2023-06-14T01:34:58;14.50;99.90
20422;DHT22;10370;53.102;18.034;2023-06-14T01:40:21;14.50;99.90
20422;DHT22;10370;53.102;18.034;2023-06-14T01:45:47;14.50;99.90
20422;DHT22;10370;53.102;18.034;2023-06-14T01:51:11;14.30;99.90
20422;DHT22;10370;53.102;18.034;2023-06-14T01:56:33;14.20;99.90
20422;DHT22;10370;53.102;18.034;2023-06-14T02:01:56;14.00;99.90
20422;DHT22;10370;53.102;18.034;2023-06-14T02:07:18;13.90;99.90
20422;DHT22;10370;53.102;18.034;2023-06-14T02:12:41;13.90;99.90
20422;DHT22;10370;53.102;18.034;2023-06-14T02:18:04;13.90;99.90
20422;DHT22;10370;53.102;18.034;2023-06-14T02:23:27;13.90;99.90
20422;DHT22;10370;53.102;18.034;2023-06-14T02:28:49;14.00;99.90
20422;DHT22;10370;53.102;18.034;2023-06-14T02:34:12;13.90;99.90
20422;DHT22;10370;53.102;18.034;2023-06-14T02:39:35;13.80;99.90
20422;DHT22;10370;53.102;18.034;2023-06-14T02:44:58;13.80;99.90
20422;DHT22;10370;53.102;18.034;2023-06-14T02:50:21;13.80;99.90
20422;DHT22;10370;53.102;18.034;2023-06-14T02:55:43;13.70;99.90
20422;DHT22;10370;53.102;18.034;2023-06-14T03:01:06;13.70;99.90
20422;DHT22;10370;53.102;18.034;2023-06-14T03:06:30;13.60;99.90
20422;DHT22;10370;53.102;18.034;2023-06-14T03:11:52;13.60;99.90
20422;DHT22;10370;53.102;18.034;2023-06-14T03:17:15;13.60;99.90
20422;DHT22;10370;53.102;18.034;2023-06-14T03:22:39;13.70;99.90
20422;DHT22;10370;53.102;18.034;2023-06-14T03:28:03;13.70;99.90
20422;DHT22;10370;53.102;18.034;2023-06-14T03:33:26;13.70;99.90
20422;DHT22;10370;53.102;18.034;2023-06-14T03:38:48;13.70;99.90
20422;DHT22;10370;53.102;18.034;2023-06-14T03:44:11;13.70;99.90
20422;DHT22;10370;53.102;18.034;2023-06-14T03:49:34;13.70;99.90
20422;DHT22;10370;53.102;18.034;2023-06-14T03:54:56;13.70;99.90
20422;DHT22;10370;53.102;18.034;2023-06-14T04:00:24;13.70;99.90
20422;DHT22;10370;53.102;18.034;2023-06-14T04:05:46;13.60;99.90
20422;DHT22;10370;53.102;18.034;2023-06-14T04:11:12;13.70;99.90
20422;DHT22;10370;53.102;18.034;2023-06-14T04:16:34;13.70;99.90
20422;DHT22;10370;53.102;18.034;2023-06-14T04:21:58;13.60;99.90
20422;DHT22;10370;53.102;18.034;2023-06-14T04:27:23;13.70;99.90
20422;DHT22;10370;53.102;18.034;2023-06-14T04:32:48;13.70;99.90
20422;DHT22;10370;53.102;18.034;2023-06-14T04:38:11;13.70;99.90
20422;DHT22;10370;53.102;18.034;2023-06-14T04:43:34;13.80;99.90
20422;DHT22;10370;53.102;18.034;2023-06-14T04:49:00;13.90;99.90
20422;DHT22;10370;53.102;18.034;2023-06-14T04:54:24;13.90;99.90
20422;DHT22;10370;53.102;18.034;2023-06-14T04:59:50;14.10;99.90
20422;DHT22;10370;53.102;18.034;2023-06-14T05:05:17;14.20;99.90
20422;DHT22;10370;53.102;18.034;2023-06-14T05:10:40;14.20;99.90
20422;DHT22;10370;53.102;18.034;2023-06-14T05:16:03;14.30;99.90
20422;DHT22;10370;53.102;18.034;2023-06-14T05:21:25;14.50;99.90
20422;DHT22;10370;53.102;18.034;2023-06-14T05:26:48;14.70;99.90
20422;DHT22;10370;53.102;18.034;2023-06-14T05:32:11;15.00;99.90
20422;DHT22;10370;53.102;18.034;2023-06-14T05:37:34;15.20;99.90
20422;DHT22;10370;53.102;18.034;2023-06-14T05:42:56;15.30;99.90
20422;DHT22;10370;53.102;18.034;2023-06-14T05:48:19;15.30;99.90
20422;DHT22;10370;53.102;18.034;2023-06-14T05:53:42;15.30;99.90
20422;DHT22;10370;53.102;18.034;2023-06-14T05:59:04;15.30;99.90
20422;DHT22;10370;53.102;18.034;2023-06-14T06:04:27;15.50;99.90
20422;DHT22;10370;53.102;18.034;2023-06-14T06:09:50;15.60;99.90
20422;DHT22;10370;53.102;18.034;2023-06-14T06:15:13;15.70;99.90
20422;DHT22;10370;53.102;18.034;2023-06-14T06:20:35;16.00;99.90
20422;DHT22;10370;53.102;18.034;2023-06-14T06:25:58;16.30;99.90
20422;DHT22;10370;53.102;18.034;2023-06-14T06:31:21;16.50;99.90
20422;DHT22;10370;53.102;18.034;2023-06-14T06:36:44;16.60;99.90
20422;DHT22;10370;53.102;18.034;2023-06-14T06:42:07;16.90;99.90
20422;DHT22;10370;53.102;18.034;2023-06-14T06:47:30;16.80;99.90
20422;DHT22;10370;53.102;18.034;2023-06-14T06:52:53;16.90;99.90
20422;DHT22;10370;53.102;18.034;2023-06-14T06:58:16;16.90;99.90
20422;DHT22;10370;53.102;18.034;2023-06-14T07:03:39;16.90;99.90
20422;DHT22;10370;53.102;18.034;2023-06-14T07:09:01;16.90;99.90
20422;DHT22;10370;53.102;18.034;2023-06-14T07:14:25;16.90;99.90
20422;DHT22;10370;53.102;18.034;2023-06-14T07:19:48;17.00;99.90
20422;DHT22;10370;53.102;18.034;2023-06-14T07:25:12;17.10;99.90
20422;DHT22;10370;53.102;18.034;2023-06-14T07:30:38;17.00;99.90
20422;DHT22;10370;53.102;18.034;2023-06-14T07:36:01;17.10;99.90
20422;DHT22;10370;53.102;18.034;2023-06-14T07:41:24;17.10;99.90
20422;DHT22;10370;53.102;18.034;2023-06-14T07:46:47;17.00;99.90
20422;DHT22;10370;53.102;18.034;2023-06-14T07:52:11;17.40;99.90
20422;DHT22;10370;53.102;18.034;2023-06-14T07:57:35;17.50;99.90
20422;DHT22;10370;53.102;18.034;2023-06-14T08:02:59;17.50;99.90
20422;DHT22;10370;53.102;18.034;2023-06-14T08:08:22;17.70;99.90
20422;DHT22;10370;53.102;18.034;2023-06-14T08:13:45;17.80;99.90
20422;DHT22;10370;53.102;18.034;2023-06-14T08:19:08;17.90;99.90
20422;DHT22;10370;53.102;18.034;2023-06-14T08:24:30;18.10;99.90
20422;DHT22;10370;53.102;18.034;2023-06-14T08:29:53;18.50;99.90
20422;DHT22;10370;53.102;18.034;2023-06-14T08:35:16;18.50;99.90
20422;DHT22;10370;53.102;18.034;2023-06-14T08:40:40;18.30;99.90
20422;DHT22;10370;53.102;18.034;2023-06-14T08:46:06;18.20;99.90
20422;DHT22;10370;53.102;18.034;2023-06-14T08:51:35;18.30;99.90
20422;DHT22;10370;53.102;18.034;2023-06-14T08:56:59;18.40;99.90
20422;DHT22;10370;53.102;18.034;2023-06-14T09:02:22;18.60;99.90
20422;DHT22;10370;53.102;18.034;2023-06-14T09:07:45;18.70;99.90
20422;DHT22;10370;53.102;18.034;2023-06-14T09:13:12;18.90;99.90
20422;DHT22;10370;53.102;18.034;2023-06-14T09:18:40;19.10;99.90
20422;DHT22;10370;53.102;18.034;2023-06-14T09:24:05;19.40;99.90
20422;DHT22;10370;53.102;18.034;2023-06-14T09:29:29;19.60;99.90
20422;DHT22;10370;53.102;18.034;2023-06-14T09:34:54;20.00;99.90
20422;DHT22;10370;53.102;18.034;2023-06-14T09:40:21;19.90;99.90
20422;DHT22;10370;53.102;18.034;2023-06-14T09:45:45;19.80;99.90
20422;DHT22;10370;53.102;18.034;2023-06-14T09:51:14;19.80;99.90
20422;DHT22;10370;53.102;18.034;2023-06-14T09:56:41;19.70;99.90
20422;DHT22;10370;53.102;18.034;2023-06-14T10:02:24;19.80;99.90
20422;DHT22;10370;53.102;18.034;2023-06-14T10:13:11;20.10;99.90
20422;DHT22;10370;53.102;18.034;2023-06-14T10:18:59;20.10;99.90
20422;DHT22;10370;53.102;18.034;2023-06-14T10:24:34;20.00;99.90
20422;DHT22;10370;53.102;18.034;2023-06-14T10:30:05;20.10;99.90
20422;DHT22;10370;53.102;18.034;2023-06-14T10:35:28;20.40;99.90
20422;DHT22;10370;53.102;18.034;2023-06-14T10:40:54;20.30;99.90
20422;DHT22;10370;53.102;18.034;2023-06-14T10:46:18;20.40;99.90
20422;DHT22;10370;53.102;18.034;2023-06-14T10:51:49;20.10;99.90
20422;DHT22;10370;53.102;18.034;2023-06-14T10:57:12;20.00;99.90
20422;DHT22;10370;53.102;18.034;2023-06-14T11:14:23;20.30;99.90
20422;DHT22;10370;53.102;18.034;2023-06-14T11:19:46;20.40;99.90
20422;DHT22;10370;53.102;18.034;2023-06-14T11:25:10;20.50;99.90
20422;DHT22;10370;53.102;18.034;2023-06-14T11:30:33;20.80;99.90
20422;DHT22;10370;53.102;18.034;2023-06-14T11:35:56;21.20;99.90
20422;DHT22;10370;53.102;18.034;2023-06-14T11:41:19;21.30;99.90
20422;DHT22;10370;53.102;18.034;2023-06-14T11:46:42;21.40;99.90
20422;DHT22;10370;53.102;18.034;2023-06-14T11:52:05;21.50;99.90
20422;DHT22;10370;53.102;18.034;2023-06-14T11:57:35;21.60;99.90
20422;DHT22;10370;53.102;18.034;2023-06-14T12:02:58;21.90;99.90
20422;DHT22;10370;53.102;18.034;2023-06-14T12:08:32;21.80;99.90
20422;DHT22;10370;53.102;18.034;2023-06-14T12:14:03;22.00;99.90
20422;DHT22;10370;53.102;18.034;2023-06-14T12:19:26;22.40;99.90
20422;DHT22;10370;53.102;18.034;2023-06-14T12:24:49;22.00;99.90
20422;DHT22;10370;53.102;18.034;2023-06-14T12:30:11;21.70;99.90
20422;DHT22;10370;53.102;18.034;2023-06-14T12:35:34;21.60;99.90
20422;DHT22;10370;53.102;18.034;2023-06-14T12:40:57;21.30;99.90
20422;DHT22;10370;53.102;18.034;2023-06-14T12:46:20;21.10;99.90
20422;DHT22;10370;53.102;18.034;2023-06-14T12:51:43;20.80;99.90
20422;DHT22;10370;53.102;18.034;2023-06-14T12:57:06;20.50;99.90
20422;DHT22;10370;53.102;18.034;2023-06-14T13:02:29;20.50;99.90
20422;DHT22;10370;53.102;18.034;2023-06-14T13:07:52;20.40;99.90
20422;DHT22;10370;53.102;18.034;2023-06-14T13:13:15;20.20;99.90
20422;DHT22;10370;53.102;18.034;2023-06-14T13:18:37;20.10;99.90
20422;DHT22;10370;53.102;18.034;2023-06-14T13:24:00;20.00;99.90
20422;DHT22;10370;53.102;18.034;2023-06-14T13:29:24;19.80;99.90
20422;DHT22;10370;53.102;18.034;2023-06-14T13:34:46;19.80;99.90
20422;DHT22;10370;53.102;18.034;2023-06-14T13:40:10;19.80;99.90
20422;DHT22;10370;53.102;18.034;2023-06-14T13:45:33;19.80;99.90
20422;DHT22;10370;53.102;18.034;2023-06-14T13:50:55;19.80;99.90
20422;DHT22;10370;53.102;18.034;2023-06-14T13:56:19;19.70;99.90
20422;DHT22;10370;53.102;18.034;2023-06-14T14:01:42;19.60;99.90
20422;DHT22;10370;53.102;18.034;2023-06-14T14:07:05;19.50;99.90
20422;DHT22;10370;53.102;18.034;2023-06-14T14:12:28;19.40;99.90
20422;DHT22;10370;53.102;18.034;2023-06-14T14:17:51;19.30;99.90
20422;DHT22;10370;53.102;18.034;2023-06-14T14:23:16;19.30;99.90
20422;DHT22;10370;53.102;18.034;2023-06-14T14:28:39;19.20;99.90
20422;DHT22;10370;53.102;18.034;2023-06-14T14:34:01;19.20;99.90
20422;DHT22;10370;53.102;18.034;2023-06-14T14:39:24;19.10;99.90
20422;DHT22;10370;53.102;18.034;2023-06-14T14:44:47;19.10;99.90
20422;DHT22;10370;53.102;18.034;2023-06-14T14:50:19;19.20;99.90
20422;DHT22;10370;53.102;18.034;2023-06-14T14:55:44;19.10;99.90
20422;DHT22;10370;53.102;18.034;2023-06-14T15:01:07;19.20;99.90
20422;DHT22;10370;53.102;18.034;2023-06-14T15:06:31;19.10;99.90
20422;DHT22;10370;53.102;18.034;2023-06-14T15:11:53;19.00;99.90
20422;DHT22;10370;53.102;18.034;2023-06-14T15:17:16;19.10;99.90
20422;DHT22;10370;53.102;18.034;2023-06-14T15:22:41;19.10;99.90
20422;DHT22;10370;53.102;18.034;2023-06-14T15:28:04;19.10;99.90
20422;DHT22;10370;53.102;18.034;2023-06-14T15:33:29;19.00;99.90
20422;DHT22;10370;53.102;18.034;2023-06-14T15:38:52;18.90;99.90
20422;DHT22;10370;53.102;18.034;2023-06-14T15:44:15;18.90;99.90
20422;DHT22;10370;53.102;18.034;2023-06-14T15:49:38;18.50;99.90
20422;DHT22;10370;53.102;18.034;2023-06-14T15:55:00;18.20;99.90
20422;DHT22;10370;53.102;18.034;2023-06-14T16:00:24;18.00;99.90
20422;DHT22;10370;53.102;18.034;2023-06-14T16:05:48;17.80;99.90
20422;DHT22;10370;53.102;18.034;2023-06-14T16:11:10;17.80;99.90
20422;DHT22;10370;53.102;18.034;2023-06-14T16:16:33;17.70;99.90
20422;DHT22;10370;53.102;18.034;2023-06-14T16:21:56;17.40;99.90
20422;DHT22;10370;53.102;18.034;2023-06-14T16:27:19;17.40;99.90
20422;DHT22;10370;53.102;18.034;2023-06-14T16:32:42;17.50;99.90
20422;DHT22;10370;53.102;18.034;2023-06-14T16:38:05;17.50;99.90
20422;DHT22;10370;53.102;18.034;2023-06-14T16:43:31;17.50;99.90
20422;DHT22;10370;53.102;18.034;2023-06-14T16:48:54;17.40;99.90
20422;DHT22;10370;53.102;18.034;2023-06-14T16:54:17;17.30;99.90
20422;DHT22;10370;53.102;18.034;2023-06-14T16:59:40;17.30;99.90
20422;DHT22;10370;53.102;18.034;2023-06-14T17:05:02;17.10;99.90
20422;DHT22;10370;53.102;18.034;2023-06-14T17:10:27;17.00;99.90
20422;DHT22;10370;53.102;18.034;2023-06-14T17:15:51;17.00;99.90
20422;DHT22;10370;53.102;18.034;2023-06-14T17:21:14;16.90;99.90
20422;DHT22;10370;53.102;18.034;2023-06-14T17:26:36;16.60;99.90
20422;DHT22;10370;53.102;18.034;2023-06-14T17:31:59;16.50;99.90
20422;DHT22;10370;53.102;18.034;2023-06-14T17:37:22;16.30;99.90
20422;DHT22;10370;53.102;18.034;2023-06-14T17:42:45;16.30;99.90
20422;DHT22;10370;53.102;18.034;2023-06-14T17:48:08;16.10;99.90
20422;DHT22;10370;53.102;18.034;2023-06-14T17:53:31;16.10;99.90
20422;DHT22;10370;53.102;18.034;2023-06-14T17:58:53;16.00;99.90
20422;DHT22;10370;53.102;18.034;2023-06-14T18:04:18;16.10;99.90
20422;DHT22;10370;53.102;18.034;2023-06-14T18:09:41;15.90;99.90
20422;DHT22;10370;53.102;18.034;2023-06-14T18:15:08;15.80;99.90
20422;DHT22;10370;53.102;18.034;2023-06-14T18:20:32;15.80;99.90
20422;DHT22;10370;53.102;18.034;2023-06-14T18:25:56;15.90;99.90
20422;DHT22;10370;53.102;18.034;2023-06-14T18:31:19;15.80;99.90
20422;DHT22;10370;53.102;18.034;2023-06-14T18:36:42;15.90;99.90
20422;DHT22;10370;53.102;18.034;2023-06-14T18:42:06;15.70;99.90
20422;DHT22;10370;53.102;18.034;2023-06-14T18:47:32;15.70;99.90
20422;DHT22;10370;53.102;18.034;2023-06-14T18:52:59;15.70;99.90
20422;DHT22;10370;53.102;18.034;2023-06-14T18:58:22;15.40;99.90
20422;DHT22;10370;53.102;18.034;2023-06-14T19:03:45;15.40;99.90
20422;DHT22;10370;53.102;18.034;2023-06-14T19:09:11;15.40;99.90
20422;DHT22;10370;53.102;18.034;2023-06-14T19:14:34;15.40;99.90
20422;DHT22;10370;53.102;18.034;2023-06-14T19:19:57;15.50;99.90
20422;DHT22;10370;53.102;18.034;2023-06-14T19:25:20;15.60;99.90
20422;DHT22;10370;53.102;18.034;2023-06-14T19:31:02;15.50;99.90
20422;DHT22;10370;53.102;18.034;2023-06-14T19:36:43;15.30;99.90
20422;DHT22;10370;53.102;18.034;2023-06-14T19:42:06;15.30;99.90
20422;DHT22;10370;53.102;18.034;2023-06-14T19:47:29;15.30;99.90
20422;DHT22;10370;53.102;18.034;2023-06-14T19:52:53;15.30;99.90
20422;DHT22;10370;53.102;18.034;2023-06-14T19:58:16;15.20;99.90
20422;DHT22;10370;53.102;18.034;2023-06-14T20:03:39;15.10;99.90
20422;DHT22;10370;53.102;18.034;2023-06-14T20:09:02;15.20;99.90
20422;DHT22;10370;53.102;18.034;2023-06-14T20:14:43;15.10;99.90
20422;DHT22;10370;53.102;18.034;2023-06-14T20:20:08;15.20;99.90
20422;DHT22;10370;53.102;18.034;2023-06-14T20:25:33;15.10;99.90
20422;DHT22;10370;53.102;18.034;2023-06-14T20:30:56;15.00;99.90
20422;DHT22;10370;53.102;18.034;2023-06-14T20:36:19;15.00;99.90
20422;DHT22;10370;53.102;18.034;2023-06-14T20:41:45;15.00;99.90
20422;DHT22;10370;53.102;18.034;2023-06-14T20:47:08;15.10;99.90
20422;DHT22;10370;53.102;18.034;2023-06-14T20:52:41;15.00;99.90
20422;DHT22;10370;53.102;18.034;2023-06-14T20:58:04;15.00;99.90
20422;DHT22;10370;53.102;18.034;2023-06-14T21:03:28;14.90;99.90
20422;DHT22;10370;53.102;18.034;2023-06-14T21:08:51;14.80;99.90
20422;DHT22;10370;53.102;18.034;2023-06-14T21:14:14;14.80;99.90
20422;DHT22;10370;53.102;18.034;2023-06-14T21:19:37;14.80;99.90
20422;DHT22;10370;53.102;18.034;2023-06-14T21:25:04;14.80;99.90
20422;DHT22;10370;53.102;18.034;2023-06-14T21:30:34;14.70;99.90
20422;DHT22;10370;53.102;18.034;2023-06-14T21:35:57;14.70;99.90
20422;DHT22;10370;53.102;18.034;2023-06-14T21:41:20;14.70;99.90
20422;DHT22;10370;53.102;18.034;2023-06-14T21:46:45;14.60;99.90
20422;DHT22;10370;53.102;18.034;2023-06-14T21:52:08;14.70;99.90
20422;DHT22;10370;53.102;18.034;2023-06-14T21:57:32;14.60;99.90
20422;DHT22;10370;53.102;18.034;2023-06-14T22:02:56;14.50;99.90
20422;DHT22;10370;53.102;18.034;2023-06-14T22:08:19;14.50;99.90
20422;DHT22;10370;53.102;18.034;2023-06-14T22:13:43;14.40;99.90
20422;DHT22;10370;53.102;18.034;2023-06-14T22:19:06;14.50;99.90
20422;DHT22;10370;53.102;18.034;2023-06-14T22:24:30;14.50;99.90
20422;DHT22;10370;53.102;18.034;2023-06-14T22:29:54;14.40;99.90
20422;DHT22;10370;53.102;18.034;2023-06-14T22:35:20;14.30;99.90
20422;DHT22;10370;53.102;18.034;2023-06-14T22:40:46;14.30;99.90
20422;DHT22;10370;53.102;18.034;2023-06-14T22:46:11;14.30;99.90
20422;DHT22;10370;53.102;18.034;2023-06-14T22:51:45;14.20;99.90
20422;DHT22;10370;53.102;18.034;2023-06-14T22:57:08;14.20;99.90
20422;DHT22;10370;53.102;18.034;2023-06-14T23:02:39;14.20;99.90
20422;DHT22;10370;53.102;18.034;2023-06-14T23:08:03;14.20;99.90
20422;DHT22;10370;53.102;18.034;2023-06-14T23:13:25;14.20;99.90
20422;DHT22;10370;53.102;18.034;2023-06-14T23:18:48;14.20;99.90
20422;DHT22;10370;53.102;18.034;2023-06-14T23:24:11;14.10;99.90
20422;DHT22;10370;53.102;18.034;2023-06-14T23:29:35;14.10;99.90
20422;DHT22;10370;53.102;18.034;2023-06-14T23:35:03;14.10;99.90
20422;DHT22;10370;53.102;18.034;2023-06-14T23:40:27;14.10;99.90
20422;DHT22;10370;53.102;18.034;2023-06-14T23:45:50;14.10;99.90
20422;DHT22;10370;53.102;18.034;2023-06-14T23:51:17;14.20;99.90
20422;DHT22;10370;53.102;18.034;2023-06-14T23:56:41;14.20;99.90
